createdAt,value
2018-01-18T00:01:12.983Z,4.30
2018-01-18T00:03:38.924Z,4.30
2018-01-18T00:06:04.928Z,4.20
2018-01-18T00:08:31.732Z,4.20
2018-01-18T00:10:57.690Z,4.20
2018-01-18T00:13:24.392Z,4.20
2018-01-18T00:15:50.414Z,4.20
2018-01-18T00:18:16.325Z,4.30
2018-01-18T00:20:42.444Z,4.20
2018-01-18T00:23:09.394Z,4.20
2018-01-18T00:25:35.318Z,4.20
2018-01-18T00:28:01.269Z,4.20
2018-01-18T00:30:27.926Z,4.20
2018-01-18T00:32:54.520Z,4.10
2018-01-18T00:35:20.546Z,4.20
2018-01-18T00:37:47.335Z,4.10
2018-01-18T00:40:13.304Z,4.20
2018-01-18T00:42:39.230Z,4.20
2018-01-18T00:45:05.411Z,4.20
2018-01-18T00:47:31.413Z,4.20
2018-01-18T00:49:57.421Z,4.20
2018-01-18T00:52:23.496Z,4.20
2018-01-18T00:54:49.554Z,4.30
2018-01-18T00:57:17.330Z,4.20
2018-01-18T00:59:43.306Z,4.20
2018-01-18T01:02:09.785Z,4.10
2018-01-18T01:04:35.802Z,4.20
2018-01-18T01:07:02.672Z,4.10
2018-01-18T01:09:28.619Z,4.10
2018-01-18T01:11:54.537Z,4.10
2018-01-18T01:14:21.474Z,4.10
2018-01-18T01:16:47.411Z,4.10
2018-01-18T01:19:13.331Z,4.10
2018-01-18T01:21:39.300Z,4.10
2018-01-18T01:24:05.318Z,4.10
2018-01-18T01:26:31.362Z,4.20
2018-01-18T01:28:57.289Z,4.20
2018-01-18T01:31:23.268Z,4.20
2018-01-18T01:33:49.213Z,4.30
2018-01-18T01:36:15.121Z,4.30
2018-01-18T01:38:41.060Z,4.30
2018-01-18T01:41:06.972Z,4.30
2018-01-18T01:43:32.971Z,4.30
2018-01-18T01:45:58.921Z,4.30
2018-01-18T01:48:37.070Z,4.30
2018-01-18T01:51:03.034Z,4.30
2018-01-18T01:53:28.961Z,4.20
2018-01-18T01:55:54.927Z,4.30
2018-01-18T01:58:20.905Z,4.20
2018-01-18T02:00:46.858Z,4.20
2018-01-18T02:03:12.823Z,4.20
2018-01-18T02:05:38.841Z,4.10
2018-01-18T02:08:04.878Z,4.10
2018-01-18T02:10:30.908Z,4.10
2018-01-18T02:12:56.914Z,4.20
2018-01-18T02:15:22.866Z,4.20
2018-01-18T02:17:48.851Z,4.10
2018-01-18T02:20:14.786Z,4.10
2018-01-18T02:22:40.822Z,4.10
2018-01-18T02:25:06.837Z,4.00
2018-01-18T02:27:32.792Z,4.00
2018-01-18T02:29:58.742Z,4.00
2018-01-18T02:32:24.680Z,4.00
2018-01-18T02:34:50.642Z,3.90
2018-01-18T02:37:16.707Z,3.90
2018-01-18T02:39:43.538Z,3.90
2018-01-18T02:42:09.519Z,3.80
2018-01-18T02:44:35.428Z,3.90
2018-01-18T02:47:01.362Z,3.90
2018-01-18T02:49:27.420Z,3.90
2018-01-18T02:51:53.403Z,3.80
2018-01-18T02:54:19.384Z,3.90
2018-01-18T02:56:45.350Z,3.80
2018-01-18T02:59:11.333Z,3.80
2018-01-18T03:01:37.307Z,3.80
2018-01-18T03:04:03.392Z,3.80
2018-01-18T03:06:29.395Z,3.70
2018-01-18T03:08:55.390Z,3.80
2018-01-18T03:11:22.137Z,3.90
2018-01-18T03:13:48.089Z,3.90
2018-01-18T03:16:13.983Z,3.80
2018-01-18T03:18:39.915Z,3.90
2018-01-18T03:21:05.900Z,3.90
2018-01-18T03:23:31.857Z,3.90
2018-01-18T03:25:57.839Z,3.90
2018-01-18T03:28:23.775Z,4.00
2018-01-18T03:30:49.707Z,4.00
2018-01-18T03:33:15.731Z,4.00
2018-01-18T03:35:42.422Z,4.10
2018-01-18T03:38:08.354Z,4.00
2018-01-18T03:40:34.258Z,4.10
2018-01-18T03:43:00.214Z,4.10
2018-01-18T03:45:26.168Z,4.20
2018-01-18T03:47:52.078Z,4.20
2018-01-18T03:50:18.970Z,4.20
2018-01-18T03:52:45.162Z,4.30
2018-01-18T03:55:11.126Z,4.30
2018-01-18T03:57:37.064Z,4.30
2018-01-18T04:00:03.002Z,4.30
2018-01-18T04:02:28.939Z,4.30
2018-01-18T04:04:54.862Z,4.30
2018-01-18T04:07:20.806Z,4.30
2018-01-18T04:09:46.762Z,4.30
2018-01-18T04:12:12.702Z,4.20
2018-01-18T04:14:38.711Z,4.30
2018-01-18T04:17:04.734Z,4.20
2018-01-18T04:19:30.737Z,4.30
2018-01-18T04:21:56.702Z,4.20
2018-01-18T04:24:22.621Z,4.10
2018-01-18T04:26:48.548Z,4.20
2018-01-18T04:29:15.269Z,4.20
2018-01-18T04:31:41.219Z,4.10
2018-01-18T04:34:07.224Z,4.20
2018-01-18T04:36:33.248Z,4.10
2018-01-18T04:38:59.153Z,4.10
2018-01-18T04:41:25.070Z,4.10
2018-01-18T04:43:50.994Z,4.20
2018-01-18T04:46:17.891Z,4.10
2018-01-18T04:48:43.886Z,4.20
2018-01-18T04:51:10.093Z,4.20
2018-01-18T04:53:36.065Z,4.20
2018-01-18T04:56:01.989Z,4.20
2018-01-18T04:58:28.698Z,4.20
2018-01-18T05:00:54.654Z,4.20
2018-01-18T05:03:20.625Z,4.30
2018-01-18T05:05:47.282Z,4.30
2018-01-18T05:08:13.286Z,4.20
2018-01-18T05:10:39.306Z,4.30
2018-01-18T05:13:05.327Z,4.20
2018-01-18T05:15:32.067Z,4.30
2018-01-18T05:17:58.011Z,4.30
2018-01-18T05:20:23.988Z,4.20
2018-01-18T05:22:49.990Z,4.30
2018-01-18T05:25:15.912Z,4.30
2018-01-18T05:27:41.871Z,4.20
2018-01-18T05:30:07.803Z,4.20
2018-01-18T05:32:33.724Z,4.20
2018-01-18T05:34:59.650Z,4.40
2018-01-18T05:37:25.672Z,4.20
2018-01-18T05:39:51.581Z,4.10
2018-01-18T05:42:17.742Z,4.30
2018-01-18T05:44:43.678Z,4.20
2018-01-18T05:47:10.479Z,4.20
2018-01-18T05:49:36.453Z,4.20
2018-01-18T05:52:02.421Z,4.20
2018-01-18T05:54:29.609Z,4.20
2018-01-18T05:56:55.825Z,4.20
2018-01-18T05:59:21.902Z,4.20
2018-01-18T06:01:47.851Z,4.20
2018-01-18T06:04:13.815Z,4.10
2018-01-18T06:06:39.806Z,4.20
2018-01-18T06:09:05.757Z,4.20
2018-01-18T06:11:31.737Z,4.10
2018-01-18T06:13:58.440Z,4.10
2018-01-18T06:16:24.365Z,4.00
2018-01-18T06:18:51.086Z,4.10
2018-01-18T06:21:17.059Z,4.10
2018-01-18T06:23:42.999Z,4.10
2018-01-18T06:26:09.184Z,4.00
2018-01-18T06:28:35.723Z,4.10
2018-01-18T06:31:01.898Z,4.10
2018-01-18T06:33:27.866Z,3.90
2018-01-18T06:35:54.480Z,4.10
2018-01-18T06:38:20.523Z,4.10
2018-01-18T06:40:46.453Z,4.10
2018-01-18T06:43:13.295Z,4.10
2018-01-18T06:45:39.261Z,4.10
2018-01-18T06:48:05.255Z,4.00
2018-01-18T06:50:31.559Z,4.10
2018-01-18T06:52:58.277Z,4.10
2018-01-18T06:55:24.256Z,4.00
2018-01-18T06:57:50.597Z,4.10
2018-01-18T07:00:16.741Z,4.10
2018-01-18T07:02:42.698Z,4.10
2018-01-18T07:05:09.642Z,4.10
2018-01-18T07:07:35.608Z,4.10
2018-01-18T07:10:01.890Z,4.10
2018-01-18T07:12:28.683Z,4.10
2018-01-18T07:14:55.406Z,4.00
2018-01-18T07:17:22.346Z,4.10
2018-01-18T07:19:49.529Z,3.90
2018-01-18T07:22:15.554Z,4.20
2018-01-18T07:24:41.506Z,4.20
2018-01-18T07:27:07.831Z,4.20
2018-01-18T07:29:33.758Z,4.20
2018-01-18T07:31:59.752Z,4.20
2018-01-18T07:34:26.699Z,4.30
2018-01-18T07:36:52.665Z,4.30
2018-01-18T07:39:18.642Z,4.20
2018-01-18T07:41:45.531Z,4.30
2018-01-18T07:44:12.005Z,4.20
2018-01-18T07:46:38.004Z,4.30
2018-01-18T07:49:04.209Z,4.30
2018-01-18T07:51:30.747Z,4.30
2018-01-18T07:53:59.928Z,4.40
2018-01-18T07:56:26.146Z,4.40
2018-01-18T07:58:54.442Z,4.60
2018-01-18T08:01:22.797Z,4.60
2018-01-18T08:03:55.835Z,4.70
2018-01-18T08:06:23.378Z,4.80
2018-01-18T08:11:20.616Z,4.90
2018-01-18T08:13:46.598Z,4.90
2018-01-18T08:16:12.830Z,4.80
2018-01-18T08:18:39.948Z,5.00
2018-01-18T08:21:05.908Z,5.00
2018-01-18T08:23:31.928Z,5.10
2018-01-18T08:25:57.901Z,5.20
2018-01-18T08:28:25.227Z,5.20
2018-01-18T08:30:51.984Z,5.20
2018-01-18T08:33:18.249Z,5.30
2018-01-18T08:35:44.278Z,5.30
2018-01-18T08:38:10.546Z,5.40
2018-01-18T08:40:37.340Z,5.40
2018-01-18T08:43:04.046Z,5.50
2018-01-18T08:45:30.042Z,5.40
2018-01-18T08:47:56.000Z,5.50
2018-01-18T08:50:22.004Z,5.50
2018-01-18T08:52:48.102Z,5.60
2018-01-18T08:55:14.170Z,5.60
2018-01-18T08:57:40.196Z,5.60
2018-01-18T09:00:06.223Z,5.60
2018-01-18T09:02:32.862Z,5.60
2018-01-18T09:04:58.892Z,5.60
2018-01-18T09:07:24.826Z,5.60
2018-01-18T09:09:50.829Z,5.70
2018-01-18T09:12:16.835Z,5.70
2018-01-18T09:14:43.596Z,5.70
2018-01-18T09:17:09.558Z,5.80
2018-01-18T09:19:35.590Z,5.80
2018-01-18T09:22:01.575Z,5.80
2018-01-18T09:24:28.759Z,5.90
2018-01-18T09:26:54.730Z,5.90
2018-01-18T09:29:21.723Z,5.80
2018-01-18T09:31:47.665Z,6.00
2018-01-18T09:34:13.600Z,6.00
2018-01-18T09:36:39.561Z,6.00
2018-01-18T09:39:05.621Z,6.00
2018-01-18T09:41:32.456Z,6.10
2018-01-18T09:43:58.433Z,6.20
2018-01-18T09:46:26.058Z,6.20
2018-01-18T09:48:52.016Z,6.30
2018-01-18T09:51:18.017Z,6.40
2018-01-18T09:53:44.272Z,6.60
2018-01-18T09:56:10.998Z,6.80
2018-01-18T09:58:37.635Z,6.70
2018-01-18T10:01:04.295Z,6.80
2018-01-18T10:03:30.211Z,6.90
2018-01-18T10:05:56.523Z,7.00
2018-01-18T10:08:22.468Z,7.10
2018-01-18T10:10:50.202Z,7.30
2018-01-18T10:13:16.213Z,7.30
2018-01-18T10:15:42.234Z,7.50
2018-01-18T10:18:08.174Z,7.50
2018-01-18T10:20:34.630Z,7.70
2018-01-18T10:23:00.586Z,7.80
2018-01-18T10:25:27.366Z,8.00
2018-01-18T10:27:53.371Z,8.00
2018-01-18T10:30:19.410Z,8.20
2018-01-18T10:32:45.362Z,8.20
2018-01-18T10:35:11.362Z,8.30
2018-01-18T10:37:38.234Z,8.40
2018-01-18T10:40:04.751Z,8.50
2018-01-18T10:42:31.571Z,8.60
2018-01-18T10:44:58.228Z,8.80
2018-01-18T10:47:24.296Z,8.90
2018-01-18T10:49:50.263Z,9.00
2018-01-18T10:52:16.226Z,9.20
2018-01-18T10:54:42.217Z,9.30
2018-01-18T10:57:09.662Z,9.50
2018-01-18T10:59:35.630Z,9.40
2018-01-18T11:02:01.664Z,9.40
2018-01-18T11:04:28.980Z,9.30
2018-01-18T11:06:55.928Z,9.20
2018-01-18T11:09:22.903Z,9.10
2018-01-18T11:11:48.916Z,9.10
2018-01-18T11:14:14.916Z,9.10
2018-01-18T11:16:42.379Z,9.10
2018-01-18T11:19:08.400Z,9.20
2018-01-18T11:21:34.417Z,9.40
2018-01-18T11:24:01.195Z,9.50
2018-01-18T11:26:29.618Z,9.60
2018-01-18T11:28:57.080Z,9.60
2018-01-18T11:31:23.080Z,9.70
2018-01-18T11:33:49.621Z,9.80
2018-01-18T11:36:15.686Z,10.00
2018-01-18T11:38:41.606Z,10.10
2018-01-18T11:41:07.634Z,10.30
2018-01-18T11:43:33.567Z,10.50
2018-01-18T11:45:59.661Z,10.70
2018-01-18T11:48:25.795Z,11.00
2018-01-18T11:50:51.750Z,11.20
2018-01-18T11:53:18.399Z,11.40
2018-01-18T11:55:45.531Z,11.40
2018-01-18T11:58:12.243Z,11.60
2018-01-18T12:00:38.189Z,11.60
2018-01-18T12:03:04.950Z,11.70
2018-01-18T12:05:31.003Z,11.60
2018-01-18T12:07:57.760Z,11.70
2018-01-18T12:10:23.707Z,11.60
2018-01-18T12:12:49.712Z,11.50
2018-01-18T12:15:15.727Z,11.60
2018-01-18T12:17:41.882Z,11.50
2018-01-18T12:20:07.862Z,11.40
2018-01-18T12:22:34.616Z,11.40
2018-01-18T12:25:02.194Z,11.40
2018-01-18T12:27:29.394Z,11.40
2018-01-18T12:29:55.770Z,11.40
2018-01-18T12:32:22.619Z,11.50
2018-01-18T12:34:48.594Z,11.60
2018-01-18T12:37:14.619Z,11.60
2018-01-18T12:39:41.524Z,11.60
2018-01-18T12:42:07.503Z,11.70
2018-01-18T12:44:34.175Z,11.70
2018-01-18T12:47:02.660Z,11.70
2018-01-18T12:49:29.370Z,12.00
2018-01-18T12:51:55.319Z,12.00
2018-01-18T12:54:22.050Z,12.20
2018-01-18T12:56:48.035Z,12.20
2018-01-18T12:59:14.010Z,12.30
2018-01-18T13:01:41.757Z,12.20
2018-01-18T13:04:08.525Z,12.20
2018-01-18T13:06:34.645Z,12.10
2018-01-18T13:09:00.621Z,12.10
2018-01-18T13:11:26.641Z,11.90
2018-01-18T13:13:52.566Z,11.80
2018-01-18T13:16:18.525Z,11.70
2018-01-18T13:18:45.273Z,11.40
2018-01-18T13:21:11.250Z,11.30
2018-01-18T13:23:37.277Z,11.60
2018-01-18T13:26:03.325Z,11.80
2018-01-18T13:28:30.163Z,11.80
2018-01-18T13:30:56.865Z,11.70
2018-01-18T13:33:22.831Z,11.90
2018-01-18T13:35:49.610Z,11.50
2018-01-18T13:38:17.615Z,11.50
2018-01-18T13:40:43.563Z,11.40
2018-01-18T13:43:09.649Z,11.20
2018-01-18T13:45:37.530Z,11.00
2018-01-18T13:48:04.616Z,10.80
2018-01-18T13:50:30.628Z,10.60
2018-01-18T13:52:56.562Z,10.40
2018-01-18T13:55:22.575Z,10.30
2018-01-18T13:57:49.348Z,10.40
2018-01-18T14:00:15.863Z,10.60
2018-01-18T14:02:42.820Z,10.70
2018-01-18T14:05:08.765Z,10.70
2018-01-18T14:07:35.196Z,10.70
2018-01-18T14:10:01.127Z,10.50
2018-01-18T14:12:27.150Z,10.30
2018-01-18T14:14:53.080Z,10.20
2018-01-18T14:17:19.899Z,10.10
2018-01-18T14:19:45.888Z,10.00
2018-01-18T14:22:11.879Z,10.00
2018-01-18T14:24:37.857Z,9.90
2018-01-18T14:27:03.792Z,9.90
2018-01-18T14:29:29.795Z,9.80
2018-01-18T14:31:55.764Z,9.80
2018-01-18T14:34:22.502Z,9.70
2018-01-18T14:36:49.214Z,9.90
2018-01-18T14:39:15.179Z,9.90
2018-01-18T14:41:41.780Z,9.80
2018-01-18T14:44:08.531Z,9.80
2018-01-18T14:46:34.578Z,9.80
2018-01-18T14:49:00.560Z,9.80
2018-01-18T14:51:27.487Z,9.70
2018-01-18T14:53:53.433Z,9.80
2018-01-18T14:56:20.287Z,9.60
2018-01-18T14:58:46.264Z,9.50
2018-01-18T15:01:12.312Z,9.70
2018-01-18T15:03:38.903Z,9.50
2018-01-18T15:06:04.821Z,9.40
2018-01-18T15:08:30.778Z,9.40
2018-01-18T15:10:56.719Z,9.40
2018-01-18T15:13:22.702Z,9.30
2018-01-18T15:15:49.545Z,9.30
2018-01-18T15:18:16.307Z,9.20
2018-01-18T15:20:42.341Z,9.20
2018-01-18T15:23:09.018Z,9.10
2018-01-18T15:25:35.966Z,9.10
2018-01-18T15:28:02.138Z,9.10
2018-01-18T15:30:29.705Z,9.10
2018-01-18T15:32:56.611Z,9.10
2018-01-18T15:35:22.563Z,9.00
2018-01-18T15:37:48.623Z,9.00
2018-01-18T15:40:14.980Z,8.90
2018-01-18T15:42:41.679Z,8.80
2018-01-18T15:45:07.656Z,8.80
2018-01-18T15:47:34.208Z,8.90
2018-01-18T15:50:00.192Z,8.80
2018-01-18T15:52:26.242Z,8.80
2018-01-18T15:54:52.535Z,8.70
2018-01-18T15:57:19.079Z,8.70
2018-01-18T15:59:45.106Z,8.70
2018-01-18T16:02:12.002Z,8.60
2018-01-18T16:04:38.748Z,8.60
2018-01-18T16:07:04.698Z,8.50
2018-01-18T16:09:31.994Z,8.50
2018-01-18T16:11:57.918Z,8.50
2018-01-18T16:14:23.938Z,8.50
2018-01-18T16:16:50.018Z,8.50
2018-01-18T16:19:16.016Z,8.40
2018-01-18T16:21:42.004Z,8.40
2018-01-18T16:24:08.725Z,8.40
2018-01-18T16:26:39.372Z,8.30
2018-01-18T16:29:05.558Z,8.30
2018-01-18T16:31:31.573Z,8.20
2018-01-18T16:33:57.806Z,8.20
2018-01-18T16:36:24.010Z,8.20
2018-01-18T16:41:22.327Z,8.00
2018-01-18T16:43:51.585Z,8.00
2018-01-18T16:46:18.391Z,8.00
2018-01-18T16:48:45.431Z,7.90
2018-01-18T16:51:13.283Z,7.90
2018-01-18T16:53:46.728Z,7.90
2018-01-18T16:56:12.719Z,7.90
2018-01-18T16:58:38.730Z,7.80
2018-01-18T17:01:05.574Z,7.90
2018-01-18T17:03:33.248Z,7.90
2018-01-18T17:06:01.451Z,7.60
2018-01-18T17:08:30.930Z,7.70
2018-01-18T17:10:57.045Z,7.70
2018-01-18T17:13:23.357Z,7.80
2018-01-18T17:15:50.750Z,7.90
2018-01-18T17:18:16.895Z,7.90
2018-01-18T17:20:43.613Z,7.90
2018-01-18T17:23:09.856Z,7.90
2018-01-18T17:25:35.846Z,7.80
2018-01-18T17:28:02.598Z,7.80
2018-01-18T17:30:28.603Z,7.80
2018-01-18T17:32:54.578Z,7.90
2018-01-18T17:35:21.521Z,7.70
2018-01-18T17:37:47.737Z,7.70
2018-01-18T17:40:13.980Z,7.70
2018-01-18T17:42:40.990Z,7.70
2018-01-18T17:45:08.809Z,7.60
2018-01-18T17:47:35.837Z,7.60
2018-01-18T17:50:01.835Z,7.50
2018-01-18T17:52:28.865Z,7.50
2018-01-18T17:54:55.271Z,7.50
2018-01-18T17:57:23.570Z,7.50
2018-01-18T17:59:52.930Z,7.50
2018-01-18T18:02:23.217Z,7.40
2018-01-18T18:04:50.096Z,7.30
2018-01-18T18:07:16.093Z,7.30
2018-01-18T18:09:43.180Z,7.20
2018-01-18T18:12:09.792Z,7.20
2018-01-18T18:14:35.725Z,7.20
2018-01-18T18:17:01.731Z,7.20
2018-01-18T18:19:28.651Z,7.20
2018-01-18T18:21:54.970Z,7.00
2018-01-18T18:24:21.911Z,7.10
2018-01-18T18:26:48.039Z,7.00
2018-01-18T18:29:14.111Z,7.20
2018-01-18T18:31:40.208Z,7.00
2018-01-18T18:34:06.314Z,7.00
2018-01-18T18:36:33.104Z,6.90
2018-01-18T18:38:59.941Z,6.90
2018-01-18T18:41:37.121Z,6.80
2018-01-18T18:44:05.330Z,6.80
2018-01-18T18:46:31.639Z,6.70
2018-01-18T18:48:59.308Z,6.70
2018-01-18T18:51:26.053Z,6.70
2018-01-18T18:53:55.303Z,6.60
2018-01-18T18:56:25.703Z,6.60
2018-01-18T18:58:51.851Z,6.60
2018-01-18T19:01:29.740Z,6.80
2018-01-18T19:03:56.054Z,6.70
2018-01-18T19:06:23.202Z,6.60
2018-01-18T19:08:49.183Z,6.60
2018-01-18T19:11:15.122Z,6.60
2018-01-18T19:13:41.971Z,6.60
2018-01-18T19:16:08.053Z,6.60
2018-01-18T19:18:34.140Z,6.60
2018-01-18T19:21:00.253Z,6.60
2018-01-18T19:23:26.232Z,6.70
2018-01-18T19:25:52.156Z,6.60
2018-01-18T19:28:22.210Z,6.70
2018-01-18T19:30:49.976Z,6.60
2018-01-18T19:33:16.998Z,6.60
2018-01-18T19:35:42.955Z,6.70
2018-01-18T19:40:41.931Z,6.60
2018-01-18T19:43:07.833Z,6.60
2018-01-18T19:45:33.742Z,6.50
2018-01-18T19:47:59.762Z,6.60
2018-01-18T19:50:26.707Z,6.50
2018-01-18T19:52:53.212Z,6.50
2018-01-18T19:55:19.154Z,6.50
2018-01-18T19:57:45.114Z,6.50
2018-01-18T20:00:11.113Z,6.40
2018-01-18T20:02:37.244Z,6.30
2018-01-18T20:05:05.054Z,6.40
2018-01-18T20:07:31.070Z,6.40
2018-01-18T20:09:57.054Z,6.40
2018-01-18T20:12:23.824Z,6.30
2018-01-18T20:14:49.839Z,6.30
2018-01-18T20:17:16.631Z,6.30
2018-01-18T20:19:43.596Z,6.30
2018-01-18T20:22:09.514Z,6.20
2018-01-18T20:24:37.625Z,6.30
2018-01-18T20:27:03.603Z,6.20
2018-01-18T20:29:30.058Z,6.40
2018-01-18T20:31:56.536Z,6.40
2018-01-18T20:34:22.494Z,6.30
2018-01-18T20:36:49.060Z,6.10
2018-01-18T20:39:25.831Z,6.10
2018-01-18T20:41:52.504Z,6.10
2018-01-18T20:44:18.700Z,6.10
2018-01-18T20:46:44.720Z,6.00
2018-01-18T20:49:12.677Z,6.00
2018-01-18T20:51:40.683Z,6.00
2018-01-18T20:54:07.821Z,6.00
2018-01-18T20:56:34.758Z,5.90
2018-01-18T21:01:32.155Z,6.00
2018-01-18T21:03:59.417Z,6.00
2018-01-18T21:06:25.992Z,6.00
2018-01-18T21:08:55.357Z,6.00
2018-01-18T21:11:22.643Z,6.10
2018-01-18T21:13:50.574Z,6.00
2018-01-18T21:16:18.167Z,5.90
2018-01-18T21:18:44.152Z,6.00
2018-01-18T21:21:10.151Z,6.10
2018-01-18T21:23:36.749Z,6.00
2018-01-18T21:26:03.946Z,6.10
2018-01-18T21:28:31.066Z,6.00
2018-01-18T21:31:00.377Z,6.00
2018-01-18T21:36:00.268Z,6.00
2018-01-18T21:38:26.290Z,6.00
2018-01-18T21:40:54.174Z,6.10
2018-01-18T21:43:20.146Z,6.10
2018-01-18T21:45:47.849Z,6.10
2018-01-18T21:48:13.771Z,6.00
2018-01-18T21:50:40.535Z,6.10
2018-01-18T21:55:38.140Z,6.10
2018-01-18T21:58:06.291Z,6.10
2018-01-18T22:00:32.833Z,6.10
2018-01-18T22:02:58.935Z,6.10
2018-01-18T22:05:25.660Z,6.10
2018-01-18T22:07:51.968Z,6.10
2018-01-18T22:10:17.943Z,6.10
2018-01-18T22:12:45.786Z,6.30
2018-01-18T22:15:11.746Z,6.10
2018-01-18T22:17:38.685Z,6.10
2018-01-18T22:20:04.701Z,6.10
2018-01-18T22:22:30.663Z,6.10
2018-01-18T22:24:57.789Z,6.10
2018-01-18T22:27:25.358Z,6.10
2018-01-18T22:29:51.353Z,6.10
2018-01-18T22:32:17.992Z,6.10
2018-01-18T22:34:43.932Z,6.10
2018-01-18T22:37:09.927Z,6.10
2018-01-18T22:39:36.872Z,6.00
2018-01-18T22:42:03.625Z,6.00
2018-01-18T22:44:29.642Z,6.20
2018-01-18T22:46:55.662Z,6.10
2018-01-18T22:49:21.678Z,6.20
2018-01-18T22:51:47.804Z,6.10
2018-01-18T22:56:45.715Z,6.00
2018-01-18T22:59:13.548Z,6.00
2018-01-18T23:01:40.589Z,5.90
2018-01-18T23:04:08.366Z,6.00
2018-01-18T23:06:34.552Z,5.80
2018-01-18T23:09:00.549Z,5.90
2018-01-18T23:11:29.252Z,5.80
2018-01-18T23:13:55.333Z,5.80
2018-01-18T23:16:21.269Z,5.70
2018-01-18T23:18:47.230Z,5.80
2018-01-18T23:21:13.682Z,5.70
2018-01-18T23:23:40.503Z,5.70
2018-01-18T23:26:06.491Z,5.70
2018-01-18T23:28:32.441Z,5.70
2018-01-18T23:30:58.434Z,5.70
2018-01-18T23:33:24.530Z,5.60
2018-01-18T23:35:50.514Z,5.60
2018-01-18T23:38:16.654Z,5.50
2018-01-18T23:40:42.606Z,5.40
2018-01-18T23:43:08.574Z,5.30
2018-01-18T23:45:34.572Z,5.40
2018-01-18T23:48:00.766Z,5.30
2018-01-18T23:50:27.607Z,5.30
2018-01-18T23:52:53.647Z,5.20
2018-01-18T23:55:19.728Z,5.30
2018-01-18T23:57:45.763Z,5.20
